sensor_id;sensor_type;location;lat;lon;timestamp;P1;durP1;ratioP1;P2;durP2;ratioP2
49384;SDS011;36795;45.028;38.968;2022-09-03T00:08:56;13.38;;;2.97;;
49384;SDS011;36795;45.028;38.968;2022-09-03T00:11:51;14.90;;;3.20;;
49384;SDS011;36795;45.028;38.968;2022-09-03T00:15:05;17.60;;;4.10;;
49384;SDS011;36795;45.028;38.968;2022-09-03T00:18:06;14.73;;;2.95;;
49384;SDS011;36795;45.028;38.968;2022-09-03T00:21:01;14.25;;;2.75;;
49384;SDS011;36795;45.028;38.968;2022-09-03T00:23:52;13.15;;;2.58;;
49384;SDS011;36795;45.028;38.968;2022-09-03T00:26:39;14.13;;;2.83;;
49384;SDS011;36795;45.028;38.968;2022-09-03T00:29:40;17.15;;;3.20;;
49384;SDS011;36795;45.028;38.968;2022-09-03T00:32:39;13.85;;;3.10;;
49384;SDS011;36795;45.028;38.968;2022-09-03T00:35:48;12.70;;;2.62;;
49384;SDS011;36795;45.028;38.968;2022-09-03T00:38:40;12.48;;;2.83;;
49384;SDS011;36795;45.028;38.968;2022-09-03T00:44:31;12.00;;;2.78;;
49384;SDS011;36795;45.028;38.968;2022-09-03T00:50:20;13.23;;;2.87;;
49384;SDS011;36795;45.028;38.968;2022-09-03T00:53:21;14.20;;;3.12;;
49384;SDS011;36795;45.028;38.968;2022-09-03T01:08:42;12.60;;;2.30;;
49384;SDS011;36795;45.028;38.968;2022-09-03T01:11:40;13.77;;;2.10;;
49384;SDS011;36795;45.028;38.968;2022-09-03T01:14:51;13.62;;;2.50;;
49384;SDS011;36795;45.028;38.968;2022-09-03T01:17:56;13.80;;;2.25;;
49384;SDS011;36795;45.028;38.968;2022-09-03T01:24:10;13.50;;;2.58;;
49384;SDS011;36795;45.028;38.968;2022-09-03T01:30:05;14.02;;;2.55;;
49384;SDS011;36795;45.028;38.968;2022-09-03T01:32:57;15.45;;;2.28;;
49384;SDS011;36795;45.028;38.968;2022-09-03T01:35:50;12.37;;;2.17;;
49384;SDS011;36795;45.028;38.968;2022-09-03T01:39:20;10.35;;;2.30;;
49384;SDS011;36795;45.028;38.968;2022-09-03T01:45:36;10.68;;;2.20;;
49384;SDS011;36795;45.028;38.968;2022-09-03T01:51:28;8.13;;;2.15;;
49384;SDS011;36795;45.028;38.968;2022-09-03T02:00:42;14.32;;;2.30;;
49384;SDS011;36795;45.028;38.968;2022-09-03T02:03:35;14.70;;;2.35;;
49384;SDS011;36795;45.028;38.968;2022-09-03T02:06:26;13.73;;;2.28;;
49384;SDS011;36795;45.028;38.968;2022-09-03T02:09:12;13.75;;;2.22;;
49384;SDS011;36795;45.028;38.968;2022-09-03T02:12:02;13.32;;;2.47;;
49384;SDS011;36795;45.028;38.968;2022-09-03T02:15:02;10.88;;;2.05;;
49384;SDS011;36795;45.028;38.968;2022-09-03T02:17:54;11.57;;;2.00;;
49384;SDS011;36795;45.028;38.968;2022-09-03T02:20:45;12.13;;;2.30;;
49384;SDS011;36795;45.028;38.968;2022-09-03T02:23:32;8.73;;;2.17;;
49384;SDS011;36795;45.028;38.968;2022-09-03T02:26:20;9.23;;;2.20;;
49384;SDS011;36795;45.028;38.968;2022-09-03T02:29:09;12.18;;;2.42;;
49384;SDS011;36795;45.028;38.968;2022-09-03T02:31:55;6.72;;;2.22;;
49384;SDS011;36795;45.028;38.968;2022-09-03T02:34:43;15.10;;;2.70;;
49384;SDS011;36795;45.028;38.968;2022-09-03T02:37:29;14.23;;;2.83;;
49384;SDS011;36795;45.028;38.968;2022-09-03T02:40:15;7.32;;;2.08;;
49384;SDS011;36795;45.028;38.968;2022-09-03T02:43:02;14.07;;;2.97;;
49384;SDS011;36795;45.028;38.968;2022-09-03T02:45:51;11.32;;;2.40;;
49384;SDS011;36795;45.028;38.968;2022-09-03T02:48:41;12.48;;;2.25;;
49384;SDS011;36795;45.028;38.968;2022-09-03T02:51:30;10.15;;;2.12;;
49384;SDS011;36795;45.028;38.968;2022-09-03T02:54:26;12.82;;;2.58;;
49384;SDS011;36795;45.028;38.968;2022-09-03T02:57:14;13.02;;;2.45;;
49384;SDS011;36795;45.028;38.968;2022-09-03T03:00:01;14.40;;;2.37;;
49384;SDS011;36795;45.028;38.968;2022-09-03T03:02:48;10.55;;;2.55;;
49384;SDS011;36795;45.028;38.968;2022-09-03T03:05:37;12.82;;;2.50;;
49384;SDS011;36795;45.028;38.968;2022-09-03T03:08:29;10.70;;;2.28;;
49384;SDS011;36795;45.028;38.968;2022-09-03T03:11:17;17.62;;;2.62;;
49384;SDS011;36795;45.028;38.968;2022-09-03T03:14:04;13.60;;;2.40;;
49384;SDS011;36795;45.028;38.968;2022-09-03T03:16:50;17.92;;;2.85;;
49384;SDS011;36795;45.028;38.968;2022-09-03T03:19:37;21.37;;;2.75;;
49384;SDS011;36795;45.028;38.968;2022-09-03T03:22:23;18.70;;;4.47;;
49384;SDS011;36795;45.028;38.968;2022-09-03T03:25:09;9.48;;;2.28;;
49384;SDS011;36795;45.028;38.968;2022-09-03T03:27:55;12.70;;;3.00;;
49384;SDS011;36795;45.028;38.968;2022-09-03T03:30:41;14.07;;;3.00;;
49384;SDS011;36795;45.028;38.968;2022-09-03T03:33:31;15.77;;;2.90;;
49384;SDS011;36795;45.028;38.968;2022-09-03T03:36:18;14.45;;;2.53;;
49384;SDS011;36795;45.028;38.968;2022-09-03T03:39:04;17.48;;;2.90;;
49384;SDS011;36795;45.028;38.968;2022-09-03T03:41:50;14.27;;;2.50;;
49384;SDS011;36795;45.028;38.968;2022-09-03T03:44:36;14.10;;;3.00;;
49384;SDS011;36795;45.028;38.968;2022-09-03T03:47:23;14.07;;;3.03;;
49384;SDS011;36795;45.028;38.968;2022-09-03T03:50:08;15.60;;;3.08;;
49384;SDS011;36795;45.028;38.968;2022-09-03T03:52:58;15.25;;;2.80;;
49384;SDS011;36795;45.028;38.968;2022-09-03T03:55:59;14.55;;;2.87;;
49384;SDS011;36795;45.028;38.968;2022-09-03T03:58:47;15.45;;;2.45;;
49384;SDS011;36795;45.028;38.968;2022-09-03T04:01:33;14.02;;;2.78;;
49384;SDS011;36795;45.028;38.968;2022-09-03T04:04:20;15.18;;;2.97;;
49384;SDS011;36795;45.028;38.968;2022-09-03T04:07:06;11.73;;;2.87;;
49384;SDS011;36795;45.028;38.968;2022-09-03T04:09:53;15.13;;;2.50;;
49384;SDS011;36795;45.028;38.968;2022-09-03T04:12:38;10.23;;;2.62;;
49384;SDS011;36795;45.028;38.968;2022-09-03T04:15:24;16.50;;;2.83;;
49384;SDS011;36795;45.028;38.968;2022-09-03T04:18:11;12.57;;;3.12;;
49384;SDS011;36795;45.028;38.968;2022-09-03T04:21:01;14.02;;;2.62;;
49384;SDS011;36795;45.028;38.968;2022-09-03T04:23:48;11.48;;;2.62;;
49384;SDS011;36795;45.028;38.968;2022-09-03T04:26:35;14.80;;;2.80;;
49384;SDS011;36795;45.028;38.968;2022-09-03T04:29:21;14.35;;;2.75;;
49384;SDS011;36795;45.028;38.968;2022-09-03T04:32:07;18.70;;;3.03;;
49384;SDS011;36795;45.028;38.968;2022-09-03T04:35:12;12.85;;;2.85;;
49384;SDS011;36795;45.028;38.968;2022-09-03T04:37:59;14.38;;;3.03;;
49384;SDS011;36795;45.028;38.968;2022-09-03T04:40:50;14.20;;;2.75;;
49384;SDS011;36795;45.028;38.968;2022-09-03T04:43:37;17.75;;;3.00;;
49384;SDS011;36795;45.028;38.968;2022-09-03T04:46:27;12.20;;;2.85;;
49384;SDS011;36795;45.028;38.968;2022-09-03T04:49:17;18.37;;;3.03;;
49384;SDS011;36795;45.028;38.968;2022-09-03T04:52:04;20.42;;;3.45;;
49384;SDS011;36795;45.028;38.968;2022-09-03T04:54:51;18.50;;;3.12;;
49384;SDS011;36795;45.028;38.968;2022-09-03T04:57:37;19.62;;;3.58;;
49384;SDS011;36795;45.028;38.968;2022-09-03T05:00:23;16.05;;;3.25;;
49384;SDS011;36795;45.028;38.968;2022-09-03T05:03:09;18.20;;;2.85;;
49384;SDS011;36795;45.028;38.968;2022-09-03T05:05:56;14.93;;;2.95;;
49384;SDS011;36795;45.028;38.968;2022-09-03T05:08:42;19.67;;;3.15;;
49384;SDS011;36795;45.028;38.968;2022-09-03T05:11:38;15.45;;;3.10;;
49384;SDS011;36795;45.028;38.968;2022-09-03T05:14:24;16.75;;;3.22;;
49384;SDS011;36795;45.028;38.968;2022-09-03T05:17:11;16.30;;;2.87;;
49384;SDS011;36795;45.028;38.968;2022-09-03T05:19:57;16.70;;;2.95;;
49384;SDS011;36795;45.028;38.968;2022-09-03T05:22:43;16.85;;;3.75;;
49384;SDS011;36795;45.028;38.968;2022-09-03T05:25:29;20.27;;;3.40;;
49384;SDS011;36795;45.028;38.968;2022-09-03T05:28:19;17.65;;;3.20;;
49384;SDS011;36795;45.028;38.968;2022-09-03T05:31:06;21.87;;;4.10;;
49384;SDS011;36795;45.028;38.968;2022-09-03T05:33:54;18.73;;;3.22;;
49384;SDS011;36795;45.028;38.968;2022-09-03T05:36:44;20.83;;;3.40;;
49384;SDS011;36795;45.028;38.968;2022-09-03T05:39:31;18.85;;;3.53;;
49384;SDS011;36795;45.028;38.968;2022-09-03T05:42:17;19.52;;;3.30;;
49384;SDS011;36795;45.028;38.968;2022-09-03T05:45:07;23.83;;;3.47;;
49384;SDS011;36795;45.028;38.968;2022-09-03T05:47:58;22.98;;;3.85;;
49384;SDS011;36795;45.028;38.968;2022-09-03T05:50:46;19.73;;;2.92;;
49384;SDS011;36795;45.028;38.968;2022-09-03T05:53:33;17.40;;;3.50;;
49384;SDS011;36795;45.028;38.968;2022-09-03T05:56:22;21.08;;;3.12;;
49384;SDS011;36795;45.028;38.968;2022-09-03T05:59:09;22.80;;;4.07;;
49384;SDS011;36795;45.028;38.968;2022-09-03T06:01:57;22.85;;;3.83;;
49384;SDS011;36795;45.028;38.968;2022-09-03T06:04:44;19.92;;;3.47;;
49384;SDS011;36795;45.028;38.968;2022-09-03T06:07:30;18.58;;;3.47;;
49384;SDS011;36795;45.028;38.968;2022-09-03T06:10:17;16.33;;;3.50;;
49384;SDS011;36795;45.028;38.968;2022-09-03T06:13:03;18.62;;;3.70;;
49384;SDS011;36795;45.028;38.968;2022-09-03T06:15:49;16.67;;;3.35;;
49384;SDS011;36795;45.028;38.968;2022-09-03T06:18:43;16.27;;;3.42;;
49384;SDS011;36795;45.028;38.968;2022-09-03T06:21:30;21.20;;;3.80;;
49384;SDS011;36795;45.028;38.968;2022-09-03T06:24:17;17.55;;;3.20;;
49384;SDS011;36795;45.028;38.968;2022-09-03T06:27:07;21.70;;;3.80;;
49384;SDS011;36795;45.028;38.968;2022-09-03T06:29:53;16.52;;;3.12;;
49384;SDS011;36795;45.028;38.968;2022-09-03T06:32:43;20.12;;;3.30;;
49384;SDS011;36795;45.028;38.968;2022-09-03T06:35:29;19.25;;;3.25;;
49384;SDS011;36795;45.028;38.968;2022-09-03T06:38:16;19.50;;;3.65;;
49384;SDS011;36795;45.028;38.968;2022-09-03T06:41:06;21.60;;;3.90;;
49384;SDS011;36795;45.028;38.968;2022-09-03T06:43:58;19.98;;;3.80;;
49384;SDS011;36795;45.028;38.968;2022-09-03T06:46:49;26.40;;;4.53;;
49384;SDS011;36795;45.028;38.968;2022-09-03T06:49:37;23.70;;;4.03;;
49384;SDS011;36795;45.028;38.968;2022-09-03T06:52:23;18.52;;;3.80;;
49384;SDS011;36795;45.028;38.968;2022-09-03T06:55:09;21.33;;;4.12;;
49384;SDS011;36795;45.028;38.968;2022-09-03T06:57:55;26.00;;;4.30;;
49384;SDS011;36795;45.028;38.968;2022-09-03T07:00:42;20.60;;;4.05;;
49384;SDS011;36795;45.028;38.968;2022-09-03T07:03:28;26.67;;;5.30;;
49384;SDS011;36795;45.028;38.968;2022-09-03T07:06:16;16.90;;;3.53;;
49384;SDS011;36795;45.028;38.968;2022-09-03T07:09:04;20.23;;;3.53;;
49384;SDS011;36795;45.028;38.968;2022-09-03T07:11:54;20.50;;;4.25;;
49384;SDS011;36795;45.028;38.968;2022-09-03T07:14:40;22.33;;;4.00;;
49384;SDS011;36795;45.028;38.968;2022-09-03T07:17:26;21.95;;;5.32;;
49384;SDS011;36795;45.028;38.968;2022-09-03T07:20:12;21.73;;;4.05;;
49384;SDS011;36795;45.028;38.968;2022-09-03T07:22:58;21.30;;;4.80;;
49384;SDS011;36795;45.028;38.968;2022-09-03T07:25:50;19.02;;;4.00;;
49384;SDS011;36795;45.028;38.968;2022-09-03T07:28:39;20.92;;;4.68;;
49384;SDS011;36795;45.028;38.968;2022-09-03T07:31:27;39.38;;;24.75;;
49384;SDS011;36795;45.028;38.968;2022-09-03T07:34:15;24.25;;;5.07;;
49384;SDS011;36795;45.028;38.968;2022-09-03T07:37:02;18.70;;;4.53;;
49384;SDS011;36795;45.028;38.968;2022-09-03T07:39:50;22.95;;;4.82;;
49384;SDS011;36795;45.028;38.968;2022-09-03T07:42:36;21.35;;;4.75;;
49384;SDS011;36795;45.028;38.968;2022-09-03T07:45:24;24.08;;;4.65;;
49384;SDS011;36795;45.028;38.968;2022-09-03T07:48:12;24.40;;;5.22;;
49384;SDS011;36795;45.028;38.968;2022-09-03T07:51:02;28.05;;;4.65;;
49384;SDS011;36795;45.028;38.968;2022-09-03T07:53:48;21.05;;;3.92;;
49384;SDS011;36795;45.028;38.968;2022-09-03T07:56:37;22.67;;;4.28;;
49384;SDS011;36795;45.028;38.968;2022-09-03T07:59:23;25.30;;;4.10;;
49384;SDS011;36795;45.028;38.968;2022-09-03T08:02:10;27.55;;;6.82;;
49384;SDS011;36795;45.028;38.968;2022-09-03T08:04:57;27.40;;;4.70;;
49384;SDS011;36795;45.028;38.968;2022-09-03T08:07:42;22.42;;;4.93;;
49384;SDS011;36795;45.028;38.968;2022-09-03T08:10:28;22.23;;;5.07;;
49384;SDS011;36795;45.028;38.968;2022-09-03T08:13:15;20.80;;;5.12;;
49384;SDS011;36795;45.028;38.968;2022-09-03T08:16:01;20.33;;;4.47;;
49384;SDS011;36795;45.028;38.968;2022-09-03T08:18:48;24.80;;;3.87;;
49384;SDS011;36795;45.028;38.968;2022-09-03T08:21:35;25.05;;;6.20;;
49384;SDS011;36795;45.028;38.968;2022-09-03T08:24:22;27.23;;;4.68;;
49384;SDS011;36795;45.028;38.968;2022-09-03T08:27:10;21.83;;;5.82;;
49384;SDS011;36795;45.028;38.968;2022-09-03T08:29:56;23.02;;;4.90;;
49384;SDS011;36795;45.028;38.968;2022-09-03T08:32:42;23.95;;;6.30;;
49384;SDS011;36795;45.028;38.968;2022-09-03T08:35:28;19.30;;;4.20;;
49384;SDS011;36795;45.028;38.968;2022-09-03T08:38:16;28.42;;;5.15;;
49384;SDS011;36795;45.028;38.968;2022-09-03T08:41:06;24.83;;;4.85;;
49384;SDS011;36795;45.028;38.968;2022-09-03T08:47:29;23.73;;;5.15;;
49384;SDS011;36795;45.028;38.968;2022-09-03T08:50:27;19.65;;;4.53;;
49384;SDS011;36795;45.028;38.968;2022-09-03T08:56:03;18.50;;;4.80;;
49384;SDS011;36795;45.028;38.968;2022-09-03T08:58:54;24.67;;;5.60;;
49384;SDS011;36795;45.028;38.968;2022-09-03T09:01:50;22.15;;;6.70;;
49384;SDS011;36795;45.028;38.968;2022-09-03T09:08:26;28.42;;;5.03;;
49384;SDS011;36795;45.028;38.968;2022-09-03T09:11:00;22.13;;;6.22;;
49384;SDS011;36795;45.028;38.968;2022-09-03T09:13:55;20.48;;;5.15;;
49384;SDS011;36795;45.028;38.968;2022-09-03T09:17:19;17.65;;;4.40;;
49384;SDS011;36795;45.028;38.968;2022-09-03T09:20:30;22.70;;;5.25;;
49384;SDS011;36795;45.028;38.968;2022-09-03T09:23:30;24.87;;;4.45;;
49384;SDS011;36795;45.028;38.968;2022-09-03T09:26:20;24.85;;;5.55;;
49384;SDS011;36795;45.028;38.968;2022-09-03T09:29:07;22.15;;;5.30;;
49384;SDS011;36795;45.028;38.968;2022-09-03T09:31:56;21.67;;;4.40;;
49384;SDS011;36795;45.028;38.968;2022-09-03T09:34:42;23.85;;;4.72;;
49384;SDS011;36795;45.028;38.968;2022-09-03T09:37:29;19.70;;;4.47;;
49384;SDS011;36795;45.028;38.968;2022-09-03T09:40:48;25.23;;;4.47;;
49384;SDS011;36795;45.028;38.968;2022-09-03T09:43:29;26.75;;;4.37;;
49384;SDS011;36795;45.028;38.968;2022-09-03T09:46:21;23.27;;;4.75;;
49384;SDS011;36795;45.028;38.968;2022-09-03T09:52:43;23.75;;;4.47;;
49384;SDS011;36795;45.028;38.968;2022-09-03T09:55:31;29.60;;;5.10;;
49384;SDS011;36795;45.028;38.968;2022-09-03T09:58:18;18.42;;;4.20;;
49384;SDS011;36795;45.028;38.968;2022-09-03T10:01:11;22.25;;;4.82;;
49384;SDS011;36795;45.028;38.968;2022-09-03T10:04:10;19.98;;;4.10;;
49384;SDS011;36795;45.028;38.968;2022-09-03T10:07:17;19.42;;;4.40;;
49384;SDS011;36795;45.028;38.968;2022-09-03T10:10:18;24.55;;;4.60;;
49384;SDS011;36795;45.028;38.968;2022-09-03T10:13:08;24.58;;;5.32;;
49384;SDS011;36795;45.028;38.968;2022-09-03T10:16:00;22.48;;;5.45;;
49384;SDS011;36795;45.028;38.968;2022-09-03T10:18:50;19.25;;;4.90;;
49384;SDS011;36795;45.028;38.968;2022-09-03T10:21:57;24.80;;;4.93;;
49384;SDS011;36795;45.028;38.968;2022-09-03T10:24:57;20.95;;;4.85;;
49384;SDS011;36795;45.028;38.968;2022-09-03T10:27:45;24.75;;;4.75;;
49384;SDS011;36795;45.028;38.968;2022-09-03T10:30:32;20.52;;;4.60;;
49384;SDS011;36795;45.028;38.968;2022-09-03T10:36:35;21.00;;;4.70;;
49384;SDS011;36795;45.028;38.968;2022-09-03T10:39:59;23.75;;;5.20;;
49384;SDS011;36795;45.028;38.968;2022-09-03T10:46:18;25.15;;;5.47;;
49384;SDS011;36795;45.028;38.968;2022-09-03T10:49:23;18.98;;;4.72;;
49384;SDS011;36795;45.028;38.968;2022-09-03T11:07:40;23.55;;;6.40;;
49384;SDS011;36795;45.028;38.968;2022-09-03T11:10:49;27.80;;;7.05;;
49384;SDS011;36795;45.028;38.968;2022-09-03T11:13:51;27.27;;;6.15;;
49384;SDS011;36795;45.028;38.968;2022-09-03T11:16:58;21.08;;;5.32;;
49384;SDS011;36795;45.028;38.968;2022-09-03T11:19:51;21.08;;;5.35;;
49384;SDS011;36795;45.028;38.968;2022-09-03T11:22:42;30.35;;;5.70;;
49384;SDS011;36795;45.028;38.968;2022-09-03T11:25:31;27.48;;;5.30;;
49384;SDS011;36795;45.028;38.968;2022-09-03T11:28:34;27.50;;;8.02;;
49384;SDS011;36795;45.028;38.968;2022-09-03T11:31:37;27.58;;;5.90;;
49384;SDS011;36795;45.028;38.968;2022-09-03T11:34:43;23.60;;;5.10;;
49384;SDS011;36795;45.028;38.968;2022-09-03T11:37:31;27.35;;;5.93;;
49384;SDS011;36795;45.028;38.968;2022-09-03T11:40:18;19.05;;;4.80;;
49384;SDS011;36795;45.028;38.968;2022-09-03T11:43:06;23.15;;;5.25;;
49384;SDS011;36795;45.028;38.968;2022-09-03T11:46:25;22.27;;;5.53;;
49384;SDS011;36795;45.028;38.968;2022-09-03T11:49:22;22.20;;;5.28;;
49384;SDS011;36795;45.028;38.968;2022-09-03T11:52:13;25.55;;;5.47;;
49384;SDS011;36795;45.028;38.968;2022-09-03T11:55:31;26.62;;;5.85;;
49384;SDS011;36795;45.028;38.968;2022-09-03T11:58:23;24.85;;;5.07;;
49384;SDS011;36795;45.028;38.968;2022-09-03T12:01:14;22.42;;;5.03;;
49384;SDS011;36795;45.028;38.968;2022-09-03T12:04:06;24.55;;;4.78;;
49384;SDS011;36795;45.028;38.968;2022-09-03T12:10:37;23.85;;;5.35;;
49384;SDS011;36795;45.028;38.968;2022-09-03T12:13:54;25.58;;;5.70;;
49384;SDS011;36795;45.028;38.968;2022-09-03T12:16:52;27.80;;;5.57;;
49384;SDS011;36795;45.028;38.968;2022-09-03T12:19:54;22.58;;;5.00;;
49384;SDS011;36795;45.028;38.968;2022-09-03T12:22:42;22.05;;;5.07;;
49384;SDS011;36795;45.028;38.968;2022-09-03T12:25:28;22.95;;;5.30;;
49384;SDS011;36795;45.028;38.968;2022-09-03T12:28:19;25.62;;;5.40;;
49384;SDS011;36795;45.028;38.968;2022-09-03T12:31:09;25.77;;;5.57;;
49384;SDS011;36795;45.028;38.968;2022-09-03T12:34:13;23.90;;;5.87;;
49384;SDS011;36795;45.028;38.968;2022-09-03T12:37:01;26.40;;;5.80;;
49384;SDS011;36795;45.028;38.968;2022-09-03T12:39:51;20.20;;;5.80;;
49384;SDS011;36795;45.028;38.968;2022-09-03T12:42:38;23.25;;;5.30;;
49384;SDS011;36795;45.028;38.968;2022-09-03T12:45:25;31.30;;;6.25;;
49384;SDS011;36795;45.028;38.968;2022-09-03T12:48:14;27.52;;;6.30;;
49384;SDS011;36795;45.028;38.968;2022-09-03T12:51:02;23.08;;;5.60;;
49384;SDS011;36795;45.028;38.968;2022-09-03T12:53:48;28.45;;;5.53;;
49384;SDS011;36795;45.028;38.968;2022-09-03T12:56:37;27.55;;;6.90;;
49384;SDS011;36795;45.028;38.968;2022-09-03T12:59:26;24.27;;;5.97;;
49384;SDS011;36795;45.028;38.968;2022-09-03T13:02:21;21.62;;;5.45;;
49384;SDS011;36795;45.028;38.968;2022-09-03T13:05:14;28.45;;;6.15;;
49384;SDS011;36795;45.028;38.968;2022-09-03T13:08:03;28.77;;;5.53;;
49384;SDS011;36795;45.028;38.968;2022-09-03T13:10:52;25.77;;;5.80;;
49384;SDS011;36795;45.028;38.968;2022-09-03T13:13:49;25.67;;;5.75;;
49384;SDS011;36795;45.028;38.968;2022-09-03T13:22:55;27.87;;;5.62;;
49384;SDS011;36795;45.028;38.968;2022-09-03T13:26:08;23.75;;;6.05;;
49384;SDS011;36795;45.028;38.968;2022-09-03T13:29:22;22.95;;;5.40;;
49384;SDS011;36795;45.028;38.968;2022-09-03T13:32:27;23.23;;;5.73;;
49384;SDS011;36795;45.028;38.968;2022-09-03T13:41:45;29.05;;;5.80;;
49384;SDS011;36795;45.028;38.968;2022-09-03T13:44:51;38.50;;;6.80;;
49384;SDS011;36795;45.028;38.968;2022-09-03T13:48:00;23.10;;;6.12;;
49384;SDS011;36795;45.028;38.968;2022-09-03T13:57:03;26.60;;;6.25;;
49384;SDS011;36795;45.028;38.968;2022-09-03T14:18:36;26.15;;;5.45;;
49384;SDS011;36795;45.028;38.968;2022-09-03T14:21:31;27.33;;;5.40;;
49384;SDS011;36795;45.028;38.968;2022-09-03T14:24:43;25.83;;;5.82;;
49384;SDS011;36795;45.028;38.968;2022-09-03T14:27:32;29.90;;;7.15;;
49384;SDS011;36795;45.028;38.968;2022-09-03T14:36:36;29.20;;;6.57;;
49384;SDS011;36795;45.028;38.968;2022-09-03T14:39:49;26.27;;;5.57;;
49384;SDS011;36795;45.028;38.968;2022-09-03T14:45:57;35.78;;;7.72;;
49384;SDS011;36795;45.028;38.968;2022-09-03T14:52:01;32.47;;;7.47;;
49384;SDS011;36795;45.028;38.968;2022-09-03T15:07:20;29.83;;;5.82;;
49384;SDS011;36795;45.028;38.968;2022-09-03T15:13:41;32.35;;;6.00;;
49384;SDS011;36795;45.028;38.968;2022-09-03T15:26:07;27.48;;;5.35;;
49384;SDS011;36795;45.028;38.968;2022-09-03T15:35:05;29.10;;;6.70;;
49384;SDS011;36795;45.028;38.968;2022-09-03T15:38:04;31.15;;;6.03;;
49384;SDS011;36795;45.028;38.968;2022-09-03T15:40:57;29.00;;;5.70;;
49384;SDS011;36795;45.028;38.968;2022-09-03T15:43:50;25.48;;;5.75;;
49384;SDS011;36795;45.028;38.968;2022-09-03T15:55:34;31.65;;;15.85;;
49384;SDS011;36795;45.028;38.968;2022-09-03T15:58:31;36.08;;;15.90;;
49384;SDS011;36795;45.028;38.968;2022-09-03T16:05:00;28.62;;;11.70;;
49384;SDS011;36795;45.028;38.968;2022-09-03T16:08:09;25.77;;;7.40;;
49384;SDS011;36795;45.028;38.968;2022-09-03T16:11:12;33.08;;;7.35;;
49384;SDS011;36795;45.028;38.968;2022-09-03T16:14:14;35.33;;;7.95;;
49384;SDS011;36795;45.028;38.968;2022-09-03T16:17:54;33.85;;;9.05;;
49384;SDS011;36795;45.028;38.968;2022-09-03T16:20:47;26.75;;;9.15;;
49384;SDS011;36795;45.028;38.968;2022-09-03T16:26:53;32.28;;;10.35;;
49384;SDS011;36795;45.028;38.968;2022-09-03T16:29:53;31.98;;;9.82;;
49384;SDS011;36795;45.028;38.968;2022-09-03T16:33:00;38.15;;;9.65;;
49384;SDS011;36795;45.028;38.968;2022-09-03T16:41:47;37.35;;;10.88;;
49384;SDS011;36795;45.028;38.968;2022-09-03T16:48:10;35.22;;;9.27;;
49384;SDS011;36795;45.028;38.968;2022-09-03T16:54:37;39.45;;;19.92;;
49384;SDS011;36795;45.028;38.968;2022-09-03T17:07:50;33.28;;;8.95;;
49384;SDS011;36795;45.028;38.968;2022-09-03T17:13:35;57.05;;;26.90;;
49384;SDS011;36795;45.028;38.968;2022-09-03T17:26:33;42.17;;;21.15;;
49384;SDS011;36795;45.028;38.968;2022-09-03T17:35:49;34.17;;;7.85;;
49384;SDS011;36795;45.028;38.968;2022-09-03T17:41:52;30.58;;;8.45;;
49384;SDS011;36795;45.028;38.968;2022-09-03T17:54:31;36.20;;;11.57;;
49384;SDS011;36795;45.028;38.968;2022-09-03T17:57:23;49.60;;;18.70;;
49384;SDS011;36795;45.028;38.968;2022-09-03T18:00:22;38.03;;;8.77;;
49384;SDS011;36795;45.028;38.968;2022-09-03T18:03:32;33.53;;;7.90;;
49384;SDS011;36795;45.028;38.968;2022-09-03T18:06:47;30.12;;;6.90;;
49384;SDS011;36795;45.028;38.968;2022-09-03T18:09:50;30.42;;;6.20;;
49384;SDS011;36795;45.028;38.968;2022-09-03T18:12:42;33.47;;;6.18;;
49384;SDS011;36795;45.028;38.968;2022-09-03T18:18:36;33.35;;;7.03;;
49384;SDS011;36795;45.028;38.968;2022-09-03T18:21:28;34.30;;;7.10;;
49384;SDS011;36795;45.028;38.968;2022-09-03T18:24:40;29.85;;;6.43;;
49384;SDS011;36795;45.028;38.968;2022-09-03T18:28:08;35.78;;;7.03;;
49384;SDS011;36795;45.028;38.968;2022-09-03T18:31:15;36.88;;;6.65;;
49384;SDS011;36795;45.028;38.968;2022-09-03T18:34:20;34.83;;;7.07;;
49384;SDS011;36795;45.028;38.968;2022-09-03T18:37:35;31.62;;;7.43;;
49384;SDS011;36795;45.028;38.968;2022-09-03T18:40:52;35.28;;;8.95;;
49384;SDS011;36795;45.028;38.968;2022-09-03T19:01:29;36.22;;;8.52;;
49384;SDS011;36795;45.028;38.968;2022-09-03T19:04:41;37.92;;;8.90;;
49384;SDS011;36795;45.028;38.968;2022-09-03T19:11:33;42.05;;;10.57;;
49384;SDS011;36795;45.028;38.968;2022-09-03T19:24:30;40.80;;;10.57;;
49384;SDS011;36795;45.028;38.968;2022-09-03T19:28:38;33.75;;;9.68;;
49384;SDS011;36795;45.028;38.968;2022-09-03T19:34:39;35.00;;;9.48;;
49384;SDS011;36795;45.028;38.968;2022-09-03T19:38:12;38.60;;;8.50;;
49384;SDS011;36795;45.028;38.968;2022-09-03T19:41:26;32.08;;;7.53;;
49384;SDS011;36795;45.028;38.968;2022-09-03T19:51:33;53.75;;;29.08;;
49384;SDS011;36795;45.028;38.968;2022-09-03T19:54:46;36.53;;;15.52;;
49384;SDS011;36795;45.028;38.968;2022-09-03T19:57:56;33.95;;;11.45;;
49384;SDS011;36795;45.028;38.968;2022-09-03T20:01:03;27.42;;;7.72;;
49384;SDS011;36795;45.028;38.968;2022-09-03T20:04:13;29.45;;;6.60;;
49384;SDS011;36795;45.028;38.968;2022-09-03T20:07:18;34.95;;;9.75;;
49384;SDS011;36795;45.028;38.968;2022-09-03T20:10:24;27.35;;;7.15;;
49384;SDS011;36795;45.028;38.968;2022-09-03T20:13:13;31.27;;;6.43;;
49384;SDS011;36795;45.028;38.968;2022-09-03T20:16:12;26.85;;;5.85;;
49384;SDS011;36795;45.028;38.968;2022-09-03T20:31:58;29.87;;;6.93;;
49384;SDS011;36795;45.028;38.968;2022-09-03T20:35:16;29.02;;;8.60;;
49384;SDS011;36795;45.028;38.968;2022-09-03T20:44:24;27.77;;;5.65;;
49384;SDS011;36795;45.028;38.968;2022-09-03T20:47:19;22.75;;;5.85;;
49384;SDS011;36795;45.028;38.968;2022-09-03T20:50:38;26.52;;;5.70;;
49384;SDS011;36795;45.028;38.968;2022-09-03T20:54:02;26.80;;;6.18;;
49384;SDS011;36795;45.028;38.968;2022-09-03T21:00:00;28.87;;;7.47;;
49384;SDS011;36795;45.028;38.968;2022-09-03T21:03:13;31.37;;;7.28;;
49384;SDS011;36795;45.028;38.968;2022-09-03T21:11:58;27.27;;;5.62;;
49384;SDS011;36795;45.028;38.968;2022-09-03T21:15:03;27.90;;;5.45;;
49384;SDS011;36795;45.028;38.968;2022-09-03T21:18:03;27.50;;;5.47;;
49384;SDS011;36795;45.028;38.968;2022-09-03T21:24:04;28.90;;;4.90;;
49384;SDS011;36795;45.028;38.968;2022-09-03T21:27:08;32.80;;;6.03;;
49384;SDS011;36795;45.028;38.968;2022-09-03T21:30:04;27.60;;;5.10;;
49384;SDS011;36795;45.028;38.968;2022-09-03T21:32:55;27.87;;;5.50;;
49384;SDS011;36795;45.028;38.968;2022-09-03T21:35:59;30.70;;;5.50;;
49384;SDS011;36795;45.028;38.968;2022-09-03T21:38:57;27.85;;;4.97;;
49384;SDS011;36795;45.028;38.968;2022-09-03T21:41:57;25.02;;;5.90;;
49384;SDS011;36795;45.028;38.968;2022-09-03T21:45:03;28.55;;;5.30;;
49384;SDS011;36795;45.028;38.968;2022-09-03T21:47:58;29.73;;;5.62;;
49384;SDS011;36795;45.028;38.968;2022-09-03T21:53:43;31.08;;;5.85;;
49384;SDS011;36795;45.028;38.968;2022-09-03T21:56:52;30.20;;;5.60;;
49384;SDS011;36795;45.028;38.968;2022-09-03T22:02:39;31.15;;;6.82;;
49384;SDS011;36795;45.028;38.968;2022-09-03T22:05:27;28.40;;;6.75;;
49384;SDS011;36795;45.028;38.968;2022-09-03T22:15:27;38.72;;;9.75;;
49384;SDS011;36795;45.028;38.968;2022-09-03T22:18:25;33.10;;;8.60;;
49384;SDS011;36795;45.028;38.968;2022-09-03T22:27:16;35.85;;;11.75;;
49384;SDS011;36795;45.028;38.968;2022-09-03T22:30:14;33.92;;;10.65;;